sensor_id;sensor_type;location;lat;lon;timestamp;pressure;altitude;pressure_sealevel;temperature
10058;BMP180;5068;51.286;7.518;2022-09-25T00:00:54;99109.00;;;17.00
10058;BMP180;5068;51.286;7.518;2022-09-25T00:02:27;99113.00;;;17.00
10058;BMP180;5068;51.286;7.518;2022-09-25T00:04:01;99110.00;;;17.00
10058;BMP180;5068;51.286;7.518;2022-09-25T00:05:35;99115.00;;;17.00
10058;BMP180;5068;51.286;7.518;2022-09-25T00:07:08;99118.00;;;17.00
10058;BMP180;5068;51.286;7.518;2022-09-25T00:08:42;99114.00;;;17.00
10058;BMP180;5068;51.286;7.518;2022-09-25T00:10:16;99110.00;;;17.00
10058;BMP180;5068;51.286;7.518;2022-09-25T00:11:48;99116.00;;;16.90
10058;BMP180;5068;51.286;7.518;2022-09-25T00:13:22;99119.00;;;16.90
10058;BMP180;5068;51.286;7.518;2022-09-25T00:14:55;99116.00;;;16.90
10058;BMP180;5068;51.286;7.518;2022-09-25T00:16:31;99118.00;;;16.90
10058;BMP180;5068;51.286;7.518;2022-09-25T00:18:04;99124.00;;;16.90
10058;BMP180;5068;51.286;7.518;2022-09-25T00:19:37;99122.00;;;16.90
10058;BMP180;5068;51.286;7.518;2022-09-25T00:21:23;99124.00;;;16.90
10058;BMP180;5068;51.286;7.518;2022-09-25T00:23:02;99123.00;;;16.90
10058;BMP180;5068;51.286;7.518;2022-09-25T00:24:37;99129.00;;;16.90
10058;BMP180;5068;51.286;7.518;2022-09-25T00:26:12;99128.00;;;16.90
10058;BMP180;5068;51.286;7.518;2022-09-25T00:27:45;99127.00;;;16.90
10058;BMP180;5068;51.286;7.518;2022-09-25T00:29:19;99125.00;;;16.90
10058;BMP180;5068;51.286;7.518;2022-09-25T00:30:52;99120.00;;;16.90
10058;BMP180;5068;51.286;7.518;2022-09-25T00:32:26;99121.00;;;16.90
10058;BMP180;5068;51.286;7.518;2022-09-25T00:34:02;99118.00;;;16.90
10058;BMP180;5068;51.286;7.518;2022-09-25T00:35:34;99127.00;;;16.90
10058;BMP180;5068;51.286;7.518;2022-09-25T00:37:08;99125.00;;;16.90
10058;BMP180;5068;51.286;7.518;2022-09-25T00:38:41;99122.00;;;16.90
10058;BMP180;5068;51.286;7.518;2022-09-25T00:40:18;99119.00;;;16.90
10058;BMP180;5068;51.286;7.518;2022-09-25T00:41:52;99117.00;;;16.90
10058;BMP180;5068;51.286;7.518;2022-09-25T00:43:35;99117.00;;;16.90
10058;BMP180;5068;51.286;7.518;2022-09-25T00:45:16;99116.00;;;16.90
10058;BMP180;5068;51.286;7.518;2022-09-25T00:46:50;99111.00;;;16.90
10058;BMP180;5068;51.286;7.518;2022-09-25T00:48:22;99118.00;;;16.90
10058;BMP180;5068;51.286;7.518;2022-09-25T00:49:59;99122.00;;;16.90
10058;BMP180;5068;51.286;7.518;2022-09-25T00:51:40;99115.00;;;16.90
10058;BMP180;5068;51.286;7.518;2022-09-25T00:53:19;99115.00;;;16.90
10058;BMP180;5068;51.286;7.518;2022-09-25T00:54:59;99108.00;;;16.90
10058;BMP180;5068;51.286;7.518;2022-09-25T00:56:40;99121.00;;;16.90
10058;BMP180;5068;51.286;7.518;2022-09-25T00:58:19;99115.00;;;16.90
10058;BMP180;5068;51.286;7.518;2022-09-25T00:59:59;99121.00;;;16.90
10058;BMP180;5068;51.286;7.518;2022-09-25T01:01:34;99116.00;;;16.80
10058;BMP180;5068;51.286;7.518;2022-09-25T01:03:08;99116.00;;;16.80
10058;BMP180;5068;51.286;7.518;2022-09-25T01:04:44;99121.00;;;16.80
10058;BMP180;5068;51.286;7.518;2022-09-25T01:06:18;99125.00;;;16.80
10058;BMP180;5068;51.286;7.518;2022-09-25T01:07:54;99115.00;;;16.80
10058;BMP180;5068;51.286;7.518;2022-09-25T01:09:29;99108.00;;;16.80
10058;BMP180;5068;51.286;7.518;2022-09-25T01:11:03;99115.00;;;16.80
10058;BMP180;5068;51.286;7.518;2022-09-25T01:12:40;99126.00;;;16.80
10058;BMP180;5068;51.286;7.518;2022-09-25T01:14:15;99130.00;;;16.80
10058;BMP180;5068;51.286;7.518;2022-09-25T01:15:57;99118.00;;;16.80
10058;BMP180;5068;51.286;7.518;2022-09-25T01:17:40;99116.00;;;16.80
10058;BMP180;5068;51.286;7.518;2022-09-25T01:19:35;99120.00;;;16.80
10058;BMP180;5068;51.286;7.518;2022-09-25T01:21:26;99128.00;;;16.80
10058;BMP180;5068;51.286;7.518;2022-09-25T01:23:16;99126.00;;;16.80
10058;BMP180;5068;51.286;7.518;2022-09-25T01:25:09;99125.00;;;16.80
10058;BMP180;5068;51.286;7.518;2022-09-25T01:27:11;99121.00;;;16.80
10058;BMP180;5068;51.286;7.518;2022-09-25T01:29:05;99122.00;;;16.70
10058;BMP180;5068;51.286;7.518;2022-09-25T01:30:44;99119.00;;;16.70
10058;BMP180;5068;51.286;7.518;2022-09-25T01:32:32;99119.00;;;16.70
10058;BMP180;5068;51.286;7.518;2022-09-25T01:34:23;99115.00;;;16.70
10058;BMP180;5068;51.286;7.518;2022-09-25T01:36:05;99115.00;;;16.70
10058;BMP180;5068;51.286;7.518;2022-09-25T01:37:47;99117.00;;;16.70
10058;BMP180;5068;51.286;7.518;2022-09-25T01:39:29;99129.00;;;16.70
10058;BMP180;5068;51.286;7.518;2022-09-25T01:41:10;99126.00;;;16.70
10058;BMP180;5068;51.286;7.518;2022-09-25T01:42:51;99131.00;;;16.60
10058;BMP180;5068;51.286;7.518;2022-09-25T01:44:31;99118.00;;;16.60
10058;BMP180;5068;51.286;7.518;2022-09-25T01:46:11;99122.00;;;16.60
10058;BMP180;5068;51.286;7.518;2022-09-25T01:47:48;99123.00;;;16.60
10058;BMP180;5068;51.286;7.518;2022-09-25T01:49:29;99122.00;;;16.50
10058;BMP180;5068;51.286;7.518;2022-09-25T01:51:10;99118.00;;;16.50
10058;BMP180;5068;51.286;7.518;2022-09-25T01:52:52;99123.00;;;16.50
10058;BMP180;5068;51.286;7.518;2022-09-25T01:54:33;99129.00;;;16.50
10058;BMP180;5068;51.286;7.518;2022-09-25T01:56:13;99134.00;;;16.50
10058;BMP180;5068;51.286;7.518;2022-09-25T01:57:52;99126.00;;;16.50
10058;BMP180;5068;51.286;7.518;2022-09-25T01:59:36;99125.00;;;16.40
10058;BMP180;5068;51.286;7.518;2022-09-25T02:01:18;99127.00;;;16.40
10058;BMP180;5068;51.286;7.518;2022-09-25T02:02:58;99127.00;;;16.40
10058;BMP180;5068;51.286;7.518;2022-09-25T02:04:37;99129.00;;;16.40
10058;BMP180;5068;51.286;7.518;2022-09-25T02:06:17;99127.00;;;16.40
10058;BMP180;5068;51.286;7.518;2022-09-25T02:07:58;99129.00;;;16.40
10058;BMP180;5068;51.286;7.518;2022-09-25T02:09:38;99129.00;;;16.40
10058;BMP180;5068;51.286;7.518;2022-09-25T02:11:13;99125.00;;;16.40
10058;BMP180;5068;51.286;7.518;2022-09-25T02:12:50;99121.00;;;16.40
10058;BMP180;5068;51.286;7.518;2022-09-25T02:14:34;99130.00;;;16.40
10058;BMP180;5068;51.286;7.518;2022-09-25T02:16:14;99119.00;;;16.30
10058;BMP180;5068;51.286;7.518;2022-09-25T02:17:56;99118.00;;;16.30
10058;BMP180;5068;51.286;7.518;2022-09-25T02:19:48;99128.00;;;16.30
10058;BMP180;5068;51.286;7.518;2022-09-25T02:21:48;99123.00;;;16.30
10058;BMP180;5068;51.286;7.518;2022-09-25T02:23:27;99118.00;;;16.30
10058;BMP180;5068;51.286;7.518;2022-09-25T02:25:13;99121.00;;;16.30
10058;BMP180;5068;51.286;7.518;2022-09-25T02:26:49;99121.00;;;16.30
10058;BMP180;5068;51.286;7.518;2022-09-25T02:28:23;99118.00;;;16.30
10058;BMP180;5068;51.286;7.518;2022-09-25T02:29:58;99118.00;;;16.40
10058;BMP180;5068;51.286;7.518;2022-09-25T02:31:35;99115.00;;;16.30
10058;BMP180;5068;51.286;7.518;2022-09-25T02:33:11;99128.00;;;16.30
10058;BMP180;5068;51.286;7.518;2022-09-25T02:34:44;99123.00;;;16.40
10058;BMP180;5068;51.286;7.518;2022-09-25T02:36:20;99128.00;;;16.40
10058;BMP180;5068;51.286;7.518;2022-09-25T02:37:55;99127.00;;;16.40
10058;BMP180;5068;51.286;7.518;2022-09-25T02:39:29;99133.00;;;16.40
10058;BMP180;5068;51.286;7.518;2022-09-25T02:41:13;99128.00;;;16.40
10058;BMP180;5068;51.286;7.518;2022-09-25T02:42:58;99134.00;;;16.40
10058;BMP180;5068;51.286;7.518;2022-09-25T02:44:52;99128.00;;;16.40
10058;BMP180;5068;51.286;7.518;2022-09-25T02:46:39;99136.00;;;16.40
10058;BMP180;5068;51.286;7.518;2022-09-25T02:48:24;99136.00;;;16.40
10058;BMP180;5068;51.286;7.518;2022-09-25T02:50:13;99134.00;;;16.40
10058;BMP180;5068;51.286;7.518;2022-09-25T02:51:56;99132.00;;;16.40
10058;BMP180;5068;51.286;7.518;2022-09-25T02:53:38;99132.00;;;16.40
10058;BMP180;5068;51.286;7.518;2022-09-25T02:55:21;99133.00;;;16.40
10058;BMP180;5068;51.286;7.518;2022-09-25T02:57:02;99121.00;;;16.40
10058;BMP180;5068;51.286;7.518;2022-09-25T02:58:40;99125.00;;;16.40
10058;BMP180;5068;51.286;7.518;2022-09-25T03:00:14;99119.00;;;16.40
10058;BMP180;5068;51.286;7.518;2022-09-25T03:01:50;99125.00;;;16.40
10058;BMP180;5068;51.286;7.518;2022-09-25T03:03:26;99120.00;;;16.40
10058;BMP180;5068;51.286;7.518;2022-09-25T03:05:02;99124.00;;;16.50
10058;BMP180;5068;51.286;7.518;2022-09-25T03:06:37;99125.00;;;16.50
10058;BMP180;5068;51.286;7.518;2022-09-25T03:08:12;99125.00;;;16.50
10058;BMP180;5068;51.286;7.518;2022-09-25T03:10:04;99123.00;;;16.40
10058;BMP180;5068;51.286;7.518;2022-09-25T03:11:39;99116.00;;;16.40
10058;BMP180;5068;51.286;7.518;2022-09-25T03:13:18;99114.00;;;16.40
10058;BMP180;5068;51.286;7.518;2022-09-25T03:14:52;99113.00;;;16.40
10058;BMP180;5068;51.286;7.518;2022-09-25T03:16:33;99115.00;;;16.40
10058;BMP180;5068;51.286;7.518;2022-09-25T03:18:09;99122.00;;;16.40
10058;BMP180;5068;51.286;7.518;2022-09-25T03:19:42;99128.00;;;16.40
10058;BMP180;5068;51.286;7.518;2022-09-25T03:21:16;99121.00;;;16.40
10058;BMP180;5068;51.286;7.518;2022-09-25T03:22:48;99123.00;;;16.30
10058;BMP180;5068;51.286;7.518;2022-09-25T03:24:22;99124.00;;;16.30
10058;BMP180;5068;51.286;7.518;2022-09-25T03:25:56;99129.00;;;16.30
10058;BMP180;5068;51.286;7.518;2022-09-25T03:27:30;99122.00;;;16.30
10058;BMP180;5068;51.286;7.518;2022-09-25T03:29:03;99136.00;;;16.30
10058;BMP180;5068;51.286;7.518;2022-09-25T03:30:37;99131.00;;;16.30
10058;BMP180;5068;51.286;7.518;2022-09-25T03:32:12;99125.00;;;16.30
10058;BMP180;5068;51.286;7.518;2022-09-25T03:33:47;99132.00;;;16.30
10058;BMP180;5068;51.286;7.518;2022-09-25T03:35:20;99128.00;;;16.30
10058;BMP180;5068;51.286;7.518;2022-09-25T03:36:53;99125.00;;;16.20
10058;BMP180;5068;51.286;7.518;2022-09-25T03:38:27;99128.00;;;16.30
10058;BMP180;5068;51.286;7.518;2022-09-25T03:40:00;99127.00;;;16.30
10058;BMP180;5068;51.286;7.518;2022-09-25T03:41:34;99124.00;;;16.20
10058;BMP180;5068;51.286;7.518;2022-09-25T03:43:06;99135.00;;;16.20
10058;BMP180;5068;51.286;7.518;2022-09-25T03:44:39;99134.00;;;16.20
10058;BMP180;5068;51.286;7.518;2022-09-25T03:46:14;99122.00;;;16.20
10058;BMP180;5068;51.286;7.518;2022-09-25T03:47:47;99126.00;;;16.20
10058;BMP180;5068;51.286;7.518;2022-09-25T03:49:21;99130.00;;;16.20
10058;BMP180;5068;51.286;7.518;2022-09-25T03:50:54;99120.00;;;16.20
10058;BMP180;5068;51.286;7.518;2022-09-25T03:52:27;99126.00;;;16.20
10058;BMP180;5068;51.286;7.518;2022-09-25T03:54:00;99129.00;;;16.20
10058;BMP180;5068;51.286;7.518;2022-09-25T03:55:35;99116.00;;;16.20
10058;BMP180;5068;51.286;7.518;2022-09-25T03:57:07;99131.00;;;16.20
10058;BMP180;5068;51.286;7.518;2022-09-25T03:58:43;99122.00;;;16.20
10058;BMP180;5068;51.286;7.518;2022-09-25T04:00:16;99126.00;;;16.10
10058;BMP180;5068;51.286;7.518;2022-09-25T04:01:50;99125.00;;;16.10
10058;BMP180;5068;51.286;7.518;2022-09-25T04:03:25;99123.00;;;16.10
10058;BMP180;5068;51.286;7.518;2022-09-25T04:05:01;99131.00;;;16.10
10058;BMP180;5068;51.286;7.518;2022-09-25T04:06:35;99131.00;;;16.10
10058;BMP180;5068;51.286;7.518;2022-09-25T04:08:09;99127.00;;;16.10
10058;BMP180;5068;51.286;7.518;2022-09-25T04:09:41;99124.00;;;16.10
10058;BMP180;5068;51.286;7.518;2022-09-25T04:11:17;99125.00;;;16.10
10058;BMP180;5068;51.286;7.518;2022-09-25T04:12:50;99126.00;;;16.10
10058;BMP180;5068;51.286;7.518;2022-09-25T04:14:26;99130.00;;;16.10
10058;BMP180;5068;51.286;7.518;2022-09-25T04:16:02;99135.00;;;16.10
10058;BMP180;5068;51.286;7.518;2022-09-25T04:17:35;99133.00;;;16.00
10058;BMP180;5068;51.286;7.518;2022-09-25T04:19:09;99126.00;;;16.10
10058;BMP180;5068;51.286;7.518;2022-09-25T04:20:44;99129.00;;;16.10
10058;BMP180;5068;51.286;7.518;2022-09-25T04:22:17;99134.00;;;16.10
10058;BMP180;5068;51.286;7.518;2022-09-25T04:23:51;99137.00;;;16.10
10058;BMP180;5068;51.286;7.518;2022-09-25T04:25:44;99129.00;;;16.00
10058;BMP180;5068;51.286;7.518;2022-09-25T04:27:20;99126.00;;;16.00
10058;BMP180;5068;51.286;7.518;2022-09-25T04:28:54;99130.00;;;16.00
10058;BMP180;5068;51.286;7.518;2022-09-25T04:30:29;99133.00;;;16.00
10058;BMP180;5068;51.286;7.518;2022-09-25T04:32:02;99132.00;;;16.00
10058;BMP180;5068;51.286;7.518;2022-09-25T04:33:54;99134.00;;;16.00
10058;BMP180;5068;51.286;7.518;2022-09-25T04:35:26;99134.00;;;16.00
10058;BMP180;5068;51.286;7.518;2022-09-25T04:37:01;99126.00;;;16.00
10058;BMP180;5068;51.286;7.518;2022-09-25T04:38:34;99129.00;;;16.00
10058;BMP180;5068;51.286;7.518;2022-09-25T04:40:09;99130.00;;;16.00
10058;BMP180;5068;51.286;7.518;2022-09-25T04:41:43;99123.00;;;16.00
10058;BMP180;5068;51.286;7.518;2022-09-25T04:43:19;99125.00;;;15.90
10058;BMP180;5068;51.286;7.518;2022-09-25T04:44:53;99125.00;;;15.90
10058;BMP180;5068;51.286;7.518;2022-09-25T04:46:27;99127.00;;;15.90
10058;BMP180;5068;51.286;7.518;2022-09-25T04:48:01;99129.00;;;15.90
10058;BMP180;5068;51.286;7.518;2022-09-25T04:49:34;99127.00;;;15.90
10058;BMP180;5068;51.286;7.518;2022-09-25T04:51:10;99128.00;;;15.90
10058;BMP180;5068;51.286;7.518;2022-09-25T04:52:45;99134.00;;;15.90
10058;BMP180;5068;51.286;7.518;2022-09-25T04:54:18;99129.00;;;15.90
10058;BMP180;5068;51.286;7.518;2022-09-25T04:55:51;99131.00;;;15.90
10058;BMP180;5068;51.286;7.518;2022-09-25T04:57:26;99120.00;;;15.90
10058;BMP180;5068;51.286;7.518;2022-09-25T04:59:20;99134.00;;;15.90
10058;BMP180;5068;51.286;7.518;2022-09-25T05:01:00;99127.00;;;15.90
10058;BMP180;5068;51.286;7.518;2022-09-25T05:02:33;99140.00;;;15.90
10058;BMP180;5068;51.286;7.518;2022-09-25T05:04:07;99129.00;;;15.90
10058;BMP180;5068;51.286;7.518;2022-09-25T05:05:41;99131.00;;;16.00
10058;BMP180;5068;51.286;7.518;2022-09-25T05:07:15;99121.00;;;16.00
10058;BMP180;5068;51.286;7.518;2022-09-25T05:08:49;99123.00;;;16.00
10058;BMP180;5068;51.286;7.518;2022-09-25T05:10:27;99126.00;;;16.00
10058;BMP180;5068;51.286;7.518;2022-09-25T05:12:01;99126.00;;;16.00
10058;BMP180;5068;51.286;7.518;2022-09-25T05:13:34;99125.00;;;16.10
10058;BMP180;5068;51.286;7.518;2022-09-25T05:15:09;99128.00;;;16.10
10058;BMP180;5068;51.286;7.518;2022-09-25T05:16:44;99129.00;;;16.10
10058;BMP180;5068;51.286;7.518;2022-09-25T05:18:21;99117.00;;;16.10
10058;BMP180;5068;51.286;7.518;2022-09-25T05:19:55;99127.00;;;16.10
10058;BMP180;5068;51.286;7.518;2022-09-25T05:21:29;99124.00;;;16.10
10058;BMP180;5068;51.286;7.518;2022-09-25T05:23:01;99122.00;;;16.20
10058;BMP180;5068;51.286;7.518;2022-09-25T05:24:36;99139.00;;;16.10
10058;BMP180;5068;51.286;7.518;2022-09-25T05:26:10;99131.00;;;16.10
10058;BMP180;5068;51.286;7.518;2022-09-25T05:27:44;99132.00;;;16.10
10058;BMP180;5068;51.286;7.518;2022-09-25T05:29:17;99125.00;;;16.10
10058;BMP180;5068;51.286;7.518;2022-09-25T05:30:51;99130.00;;;16.10
10058;BMP180;5068;51.286;7.518;2022-09-25T05:32:25;99133.00;;;16.10
10058;BMP180;5068;51.286;7.518;2022-09-25T05:33:57;99126.00;;;16.20
10058;BMP180;5068;51.286;7.518;2022-09-25T05:35:32;99123.00;;;16.20
10058;BMP180;5068;51.286;7.518;2022-09-25T05:37:06;99129.00;;;16.20
10058;BMP180;5068;51.286;7.518;2022-09-25T05:38:40;99129.00;;;16.20
10058;BMP180;5068;51.286;7.518;2022-09-25T05:40:16;99125.00;;;16.20
10058;BMP180;5068;51.286;7.518;2022-09-25T05:41:56;99129.00;;;16.20
10058;BMP180;5068;51.286;7.518;2022-09-25T05:43:30;99128.00;;;16.20
10058;BMP180;5068;51.286;7.518;2022-09-25T05:45:04;99121.00;;;16.20
10058;BMP180;5068;51.286;7.518;2022-09-25T05:46:39;99123.00;;;16.20
10058;BMP180;5068;51.286;7.518;2022-09-25T05:48:16;99123.00;;;16.20
10058;BMP180;5068;51.286;7.518;2022-09-25T05:49:53;99127.00;;;16.20
10058;BMP180;5068;51.286;7.518;2022-09-25T05:51:27;99120.00;;;16.20
10058;BMP180;5068;51.286;7.518;2022-09-25T05:53:04;99120.00;;;16.20
10058;BMP180;5068;51.286;7.518;2022-09-25T05:54:40;99122.00;;;16.20
10058;BMP180;5068;51.286;7.518;2022-09-25T05:56:16;99121.00;;;16.20
10058;BMP180;5068;51.286;7.518;2022-09-25T05:57:53;99117.00;;;16.20
10058;BMP180;5068;51.286;7.518;2022-09-25T05:59:32;99119.00;;;16.20
10058;BMP180;5068;51.286;7.518;2022-09-25T06:01:06;99123.00;;;16.20
10058;BMP180;5068;51.286;7.518;2022-09-25T06:02:40;99123.00;;;16.20
10058;BMP180;5068;51.286;7.518;2022-09-25T06:04:12;99129.00;;;16.20
10058;BMP180;5068;51.286;7.518;2022-09-25T06:05:46;99126.00;;;16.20
10058;BMP180;5068;51.286;7.518;2022-09-25T06:07:20;99126.00;;;16.20
10058;BMP180;5068;51.286;7.518;2022-09-25T06:08:53;99128.00;;;16.20
10058;BMP180;5068;51.286;7.518;2022-09-25T06:10:27;99125.00;;;16.20
10058;BMP180;5068;51.286;7.518;2022-09-25T06:12:03;99127.00;;;16.30
10058;BMP180;5068;51.286;7.518;2022-09-25T06:13:37;99127.00;;;16.20
10058;BMP180;5068;51.286;7.518;2022-09-25T06:15:12;99134.00;;;16.20
10058;BMP180;5068;51.286;7.518;2022-09-25T06:16:46;99124.00;;;16.20
10058;BMP180;5068;51.286;7.518;2022-09-25T06:18:23;99125.00;;;16.20
10058;BMP180;5068;51.286;7.518;2022-09-25T06:19:57;99136.00;;;16.20
10058;BMP180;5068;51.286;7.518;2022-09-25T06:21:30;99126.00;;;16.20
10058;BMP180;5068;51.286;7.518;2022-09-25T06:23:04;99140.00;;;16.20
10058;BMP180;5068;51.286;7.518;2022-09-25T06:24:38;99126.00;;;16.20
10058;BMP180;5068;51.286;7.518;2022-09-25T06:26:11;99127.00;;;16.10
10058;BMP180;5068;51.286;7.518;2022-09-25T06:27:46;99136.00;;;16.10
10058;BMP180;5068;51.286;7.518;2022-09-25T06:29:20;99136.00;;;16.10
10058;BMP180;5068;51.286;7.518;2022-09-25T06:30:53;99142.00;;;16.10
10058;BMP180;5068;51.286;7.518;2022-09-25T06:32:26;99139.00;;;16.10
10058;BMP180;5068;51.286;7.518;2022-09-25T06:34:00;99146.00;;;16.10
10058;BMP180;5068;51.286;7.518;2022-09-25T06:35:35;99139.00;;;16.00
10058;BMP180;5068;51.286;7.518;2022-09-25T06:37:09;99144.00;;;16.00
10058;BMP180;5068;51.286;7.518;2022-09-25T06:38:42;99139.00;;;16.00
10058;BMP180;5068;51.286;7.518;2022-09-25T06:40:15;99143.00;;;16.00
10058;BMP180;5068;51.286;7.518;2022-09-25T06:41:51;99143.00;;;16.00
10058;BMP180;5068;51.286;7.518;2022-09-25T06:43:27;99141.00;;;16.00
10058;BMP180;5068;51.286;7.518;2022-09-25T06:45:00;99139.00;;;16.00
10058;BMP180;5068;51.286;7.518;2022-09-25T06:46:33;99151.00;;;16.00
10058;BMP180;5068;51.286;7.518;2022-09-25T06:48:10;99148.00;;;16.00
10058;BMP180;5068;51.286;7.518;2022-09-25T06:49:43;99153.00;;;16.00
10058;BMP180;5068;51.286;7.518;2022-09-25T06:51:17;99149.00;;;16.00
10058;BMP180;5068;51.286;7.518;2022-09-25T06:52:51;99155.00;;;16.00
10058;BMP180;5068;51.286;7.518;2022-09-25T06:54:24;99157.00;;;15.90
10058;BMP180;5068;51.286;7.518;2022-09-25T06:55:58;99153.00;;;15.90
10058;BMP180;5068;51.286;7.518;2022-09-25T06:57:32;99148.00;;;15.90
10058;BMP180;5068;51.286;7.518;2022-09-25T06:59:08;99155.00;;;15.90
10058;BMP180;5068;51.286;7.518;2022-09-25T07:00:45;99158.00;;;15.90
10058;BMP180;5068;51.286;7.518;2022-09-25T07:02:19;99145.00;;;15.90
10058;BMP180;5068;51.286;7.518;2022-09-25T07:04:10;99148.00;;;15.80
10058;BMP180;5068;51.286;7.518;2022-09-25T07:05:45;99151.00;;;15.80
10058;BMP180;5068;51.286;7.518;2022-09-25T07:07:19;99152.00;;;15.80
10058;BMP180;5068;51.286;7.518;2022-09-25T07:08:53;99151.00;;;15.80
10058;BMP180;5068;51.286;7.518;2022-09-25T07:10:28;99156.00;;;15.80
10058;BMP180;5068;51.286;7.518;2022-09-25T07:12:01;99158.00;;;15.80
10058;BMP180;5068;51.286;7.518;2022-09-25T07:13:35;99152.00;;;15.70
10058;BMP180;5068;51.286;7.518;2022-09-25T07:15:10;99152.00;;;15.70
10058;BMP180;5068;51.286;7.518;2022-09-25T07:16:43;99152.00;;;15.70
10058;BMP180;5068;51.286;7.518;2022-09-25T07:18:17;99154.00;;;15.70
10058;BMP180;5068;51.286;7.518;2022-09-25T07:19:50;99166.00;;;15.80
10058;BMP180;5068;51.286;7.518;2022-09-25T07:21:24;99157.00;;;15.80
10058;BMP180;5068;51.286;7.518;2022-09-25T07:23:00;99157.00;;;15.80
10058;BMP180;5068;51.286;7.518;2022-09-25T07:24:35;99163.00;;;15.80
10058;BMP180;5068;51.286;7.518;2022-09-25T07:26:12;99160.00;;;15.80
10058;BMP180;5068;51.286;7.518;2022-09-25T07:27:46;99159.00;;;15.80
10058;BMP180;5068;51.286;7.518;2022-09-25T07:29:18;99158.00;;;15.80
10058;BMP180;5068;51.286;7.518;2022-09-25T07:30:53;99166.00;;;15.80
10058;BMP180;5068;51.286;7.518;2022-09-25T07:32:27;99174.00;;;15.80
10058;BMP180;5068;51.286;7.518;2022-09-25T07:34:01;99163.00;;;15.80
10058;BMP180;5068;51.286;7.518;2022-09-25T07:35:40;99170.00;;;15.80
10058;BMP180;5068;51.286;7.518;2022-09-25T07:37:13;99174.00;;;15.80
10058;BMP180;5068;51.286;7.518;2022-09-25T07:38:51;99171.00;;;15.80
10058;BMP180;5068;51.286;7.518;2022-09-25T07:40:25;99175.00;;;15.70
10058;BMP180;5068;51.286;7.518;2022-09-25T07:42:00;99168.00;;;15.70
10058;BMP180;5068;51.286;7.518;2022-09-25T07:43:35;99172.00;;;15.80
10058;BMP180;5068;51.286;7.518;2022-09-25T07:45:10;99175.00;;;15.80
10058;BMP180;5068;51.286;7.518;2022-09-25T07:46:45;99172.00;;;15.80
10058;BMP180;5068;51.286;7.518;2022-09-25T07:48:19;99167.00;;;15.80
10058;BMP180;5068;51.286;7.518;2022-09-25T07:49:54;99168.00;;;15.80
10058;BMP180;5068;51.286;7.518;2022-09-25T07:51:27;99178.00;;;15.80
10058;BMP180;5068;51.286;7.518;2022-09-25T07:53:01;99174.00;;;15.80
10058;BMP180;5068;51.286;7.518;2022-09-25T07:54:33;99168.00;;;15.80
10058;BMP180;5068;51.286;7.518;2022-09-25T07:56:08;99169.00;;;15.80
10058;BMP180;5068;51.286;7.518;2022-09-25T07:57:41;99169.00;;;15.80
10058;BMP180;5068;51.286;7.518;2022-09-25T07:59:14;99167.00;;;15.80
10058;BMP180;5068;51.286;7.518;2022-09-25T08:00:48;99166.00;;;15.80
10058;BMP180;5068;51.286;7.518;2022-09-25T08:02:23;99170.00;;;15.80
10058;BMP180;5068;51.286;7.518;2022-09-25T08:03:56;99167.00;;;15.80
10058;BMP180;5068;51.286;7.518;2022-09-25T08:05:30;99165.00;;;15.90
10058;BMP180;5068;51.286;7.518;2022-09-25T08:07:03;99164.00;;;15.90
10058;BMP180;5068;51.286;7.518;2022-09-25T08:08:38;99158.00;;;15.80
10058;BMP180;5068;51.286;7.518;2022-09-25T08:10:15;99170.00;;;15.90
10058;BMP180;5068;51.286;7.518;2022-09-25T08:11:48;99171.00;;;15.80
10058;BMP180;5068;51.286;7.518;2022-09-25T08:13:22;99171.00;;;15.90
10058;BMP180;5068;51.286;7.518;2022-09-25T08:14:56;99177.00;;;15.80
10058;BMP180;5068;51.286;7.518;2022-09-25T08:16:30;99171.00;;;15.90
10058;BMP180;5068;51.286;7.518;2022-09-25T08:18:06;99176.00;;;15.90
10058;BMP180;5068;51.286;7.518;2022-09-25T08:19:43;99174.00;;;15.90
10058;BMP180;5068;51.286;7.518;2022-09-25T08:21:18;99176.00;;;15.90
10058;BMP180;5068;51.286;7.518;2022-09-25T08:22:52;99180.00;;;15.90
10058;BMP180;5068;51.286;7.518;2022-09-25T08:24:28;99172.00;;;16.00
10058;BMP180;5068;51.286;7.518;2022-09-25T08:26:02;99180.00;;;16.00
10058;BMP180;5068;51.286;7.518;2022-09-25T08:27:36;99169.00;;;16.00
10058;BMP180;5068;51.286;7.518;2022-09-25T08:29:11;99182.00;;;16.00
10058;BMP180;5068;51.286;7.518;2022-09-25T08:30:45;99177.00;;;16.10
10058;BMP180;5068;51.286;7.518;2022-09-25T08:32:19;99178.00;;;16.10
10058;BMP180;5068;51.286;7.518;2022-09-25T08:33:54;99173.00;;;16.10
10058;BMP180;5068;51.286;7.518;2022-09-25T08:35:54;99188.00;;;16.20
10058;BMP180;5068;51.286;7.518;2022-09-25T08:37:28;99178.00;;;16.20
10058;BMP180;5068;51.286;7.518;2022-09-25T08:39:03;99187.00;;;16.30
10058;BMP180;5068;51.286;7.518;2022-09-25T08:40:44;99183.00;;;16.30
10058;BMP180;5068;51.286;7.518;2022-09-25T08:42:28;99188.00;;;16.40
10058;BMP180;5068;51.286;7.518;2022-09-25T08:44:17;99182.00;;;16.40
10058;BMP180;5068;51.286;7.518;2022-09-25T08:45:52;99178.00;;;16.40
10058;BMP180;5068;51.286;7.518;2022-09-25T08:47:46;99183.00;;;16.40
10058;BMP180;5068;51.286;7.518;2022-09-25T08:49:44;99184.00;;;16.40
10058;BMP180;5068;51.286;7.518;2022-09-25T08:51:19;99181.00;;;16.40
10058;BMP180;5068;51.286;7.518;2022-09-25T08:53:12;99181.00;;;16.40
10058;BMP180;5068;51.286;7.518;2022-09-25T08:54:47;99176.00;;;16.40
10058;BMP180;5068;51.286;7.518;2022-09-25T08:56:21;99174.00;;;16.40
10058;BMP180;5068;51.286;7.518;2022-09-25T08:57:56;99175.00;;;16.50
10058;BMP180;5068;51.286;7.518;2022-09-25T08:59:34;99178.00;;;16.50
10058;BMP180;5068;51.286;7.518;2022-09-25T09:01:13;99180.00;;;16.50
10058;BMP180;5068;51.286;7.518;2022-09-25T09:02:53;99180.00;;;16.60
10058;BMP180;5068;51.286;7.518;2022-09-25T09:04:30;99168.00;;;16.70
10058;BMP180;5068;51.286;7.518;2022-09-25T09:06:11;99167.00;;;16.80
10058;BMP180;5068;51.286;7.518;2022-09-25T09:07:52;99167.00;;;16.90
10058;BMP180;5068;51.286;7.518;2022-09-25T09:09:34;99163.00;;;17.00
10058;BMP180;5068;51.286;7.518;2022-09-25T09:11:15;99177.00;;;17.00
10058;BMP180;5068;51.286;7.518;2022-09-25T09:12:56;99163.00;;;17.00
10058;BMP180;5068;51.286;7.518;2022-09-25T09:14:39;99176.00;;;17.10
10058;BMP180;5068;51.286;7.518;2022-09-25T09:16:22;99169.00;;;17.10
10058;BMP180;5068;51.286;7.518;2022-09-25T09:18:13;99178.00;;;17.10
10058;BMP180;5068;51.286;7.518;2022-09-25T09:19:58;99169.00;;;17.10
10058;BMP180;5068;51.286;7.518;2022-09-25T09:21:36;99180.00;;;17.10
10058;BMP180;5068;51.286;7.518;2022-09-25T09:23:17;99181.00;;;17.10
10058;BMP180;5068;51.286;7.518;2022-09-25T09:25:00;99181.00;;;17.20
10058;BMP180;5068;51.286;7.518;2022-09-25T09:27:02;99178.00;;;17.20